KCTB

Cut Bank International Airport

Cut Bank, Montana, USA
METAR KCTB 250056Z AUTO 25024G33KT 10SM CLR 21/08 A2986 RMK AO2 PK WND 25034/0038 SLP087 T02110078
Observed Flight Rules
May-25 @ 00:56 UTC (27 minutes ago) Visual Flight Rules
Wind Visibility Clouds
250° at 24 knots
 Gusting to 33 knots
10 miles
  • Clear skies
Temperatures Readings
Current 21°C / 70°F
Dewpoint 8°C / 46°F
Humidity 43%
Altimeter 29.86" Hg
Pressure 1008.7 hPa
Elevation 1175
METAR KCTB 250056Z AUTO 25024G33KT 10SM CLR 21/08 A2986 RMK AO2 PK WND 25034/0038 SLP087 T02110078
Observed Flight Rules
May-25 @ 00:56 UTC
(27 minutes ago)
VFR
Wind Visibility
250° at 24 knots
 Gusting to 33 knots
10 miles
Clouds
  • Clear skies
Temperature Dewpoint
21°C / 70°F 8°C / 46°F
Humidity Altimeter Pressure
43% 29.86" Hg 1008.7 hPa